sensor_id;sensor_type;location;lat;lon;timestamp;pressure;altitude;pressure_sealevel;temperature;humidity
8160;BME280;27404;52.398;9.646;2022-08-07T00:00:48;101948.28;;;11.43;100.00
8160;BME280;27404;52.398;9.646;2022-08-07T00:03:13;101948.91;;;11.38;100.00
8160;BME280;27404;52.398;9.646;2022-08-07T00:05:38;101948.25;;;11.29;100.00
8160;BME280;27404;52.398;9.646;2022-08-07T00:08:04;101945.09;;;11.25;100.00
8160;BME280;27404;52.398;9.646;2022-08-07T00:10:31;101941.53;;;11.25;100.00
8160;BME280;27404;52.398;9.646;2022-08-07T00:13:00;101942.38;;;11.25;100.00
8160;BME280;27404;52.398;9.646;2022-08-07T00:15:26;101939.22;;;11.29;100.00
8160;BME280;27404;52.398;9.646;2022-08-07T00:17:51;101938.16;;;11.30;100.00
8160;BME280;27404;52.398;9.646;2022-08-07T00:20:17;101935.44;;;11.30;100.00
8160;BME280;27404;52.398;9.646;2022-08-07T00:22:42;101941.31;;;11.33;100.00
8160;BME280;27404;52.398;9.646;2022-08-07T00:25:08;101932.06;;;11.34;100.00
8160;BME280;27404;52.398;9.646;2022-08-07T00:27:34;101939.84;;;11.37;100.00
8160;BME280;27404;52.398;9.646;2022-08-07T00:30:01;101939.41;;;11.27;100.00
8160;BME280;27404;52.398;9.646;2022-08-07T00:32:27;101934.38;;;11.24;100.00
8160;BME280;27404;52.398;9.646;2022-08-07T00:34:52;101924.91;;;11.20;100.00
8160;BME280;27404;52.398;9.646;2022-08-07T00:37:18;101937.53;;;11.21;100.00
8160;BME280;27404;52.398;9.646;2022-08-07T00:39:44;101929.28;;;11.14;100.00
8160;BME280;27404;52.398;9.646;2022-08-07T00:42:09;101937.50;;;11.14;100.00
8160;BME280;27404;52.398;9.646;2022-08-07T00:44:35;101929.69;;;11.11;100.00
8160;BME280;27404;52.398;9.646;2022-08-07T00:47:02;101925.91;;;11.12;100.00
8160;BME280;27404;52.398;9.646;2022-08-07T00:49:28;101929.94;;;11.09;100.00
8160;BME280;27404;52.398;9.646;2022-08-07T00:51:54;101932.00;;;11.01;100.00
8160;BME280;27404;52.398;9.646;2022-08-07T00:54:20;101927.56;;;11.00;100.00
8160;BME280;27404;52.398;9.646;2022-08-07T00:56:46;101931.97;;;10.94;100.00
8160;BME280;27404;52.398;9.646;2022-08-07T00:59:12;101929.47;;;10.92;100.00
8160;BME280;27404;52.398;9.646;2022-08-07T01:01:38;101935.56;;;10.94;100.00
8160;BME280;27404;52.398;9.646;2022-08-07T01:04:05;101930.72;;;10.90;100.00
8160;BME280;27404;52.398;9.646;2022-08-07T01:06:31;101936.59;;;10.80;100.00
8160;BME280;27404;52.398;9.646;2022-08-07T01:08:58;101933.22;;;10.85;100.00
8160;BME280;27404;52.398;9.646;2022-08-07T01:11:24;101934.91;;;10.79;100.00
8160;BME280;27404;52.398;9.646;2022-08-07T01:13:50;101938.00;;;10.69;100.00
8160;BME280;27404;52.398;9.646;2022-08-07T01:16:15;101936.94;;;10.70;100.00
8160;BME280;27404;52.398;9.646;2022-08-07T01:18:41;101943.03;;;10.65;100.00
8160;BME280;27404;52.398;9.646;2022-08-07T01:21:17;101933.78;;;10.60;100.00
8160;BME280;27404;52.398;9.646;2022-08-07T01:23:45;101937.31;;;10.54;100.00
8160;BME280;27404;52.398;9.646;2022-08-07T01:26:13;101941.50;;;10.49;100.00
8160;BME280;27404;52.398;9.646;2022-08-07T01:28:44;101934.78;;;10.52;100.00
8160;BME280;27404;52.398;9.646;2022-08-07T01:31:10;101936.03;;;10.49;100.00
8160;BME280;27404;52.398;9.646;2022-08-07T01:33:36;101933.09;;;10.51;100.00
8160;BME280;27404;52.398;9.646;2022-08-07T01:36:03;101924.47;;;10.47;100.00
8160;BME280;27404;52.398;9.646;2022-08-07T01:38:29;101922.97;;;10.45;100.00
8160;BME280;27404;52.398;9.646;2022-08-07T01:40:59;101926.31;;;10.40;100.00
8160;BME280;27404;52.398;9.646;2022-08-07T01:43:27;101916.44;;;10.46;100.00
8160;BME280;27404;52.398;9.646;2022-08-07T01:45:54;101921.91;;;10.39;100.00
8160;BME280;27404;52.398;9.646;2022-08-07T01:48:20;101915.31;;;10.33;100.00
8160;BME280;27404;52.398;9.646;2022-08-07T01:50:49;101912.38;;;10.35;100.00
8160;BME280;27404;52.398;9.646;2022-08-07T01:53:18;101907.97;;;10.34;100.00
8160;BME280;27404;52.398;9.646;2022-08-07T01:55:49;101906.28;;;10.33;100.00
8160;BME280;27404;52.398;9.646;2022-08-07T01:58:17;101914.25;;;10.34;100.00
8160;BME280;27404;52.398;9.646;2022-08-07T02:00:45;101912.13;;;10.30;100.00
8160;BME280;27404;52.398;9.646;2022-08-07T02:03:14;101909.38;;;10.23;100.00
8160;BME280;27404;52.398;9.646;2022-08-07T02:05:51;101905.38;;;10.19;100.00
8160;BME280;27404;52.398;9.646;2022-08-07T02:08:21;101906.81;;;10.15;100.00
8160;BME280;27404;52.398;9.646;2022-08-07T02:10:48;101904.47;;;10.12;100.00
8160;BME280;27404;52.398;9.646;2022-08-07T02:13:19;101911.03;;;10.17;100.00
8160;BME280;27404;52.398;9.646;2022-08-07T02:15:46;101916.47;;;10.17;100.00
8160;BME280;27404;52.398;9.646;2022-08-07T02:18:14;101907.22;;;10.12;100.00
8160;BME280;27404;52.398;9.646;2022-08-07T02:20:41;101912.31;;;10.28;100.00
8160;BME280;27404;52.398;9.646;2022-08-07T02:23:09;101904.44;;;10.40;100.00
8160;BME280;27404;52.398;9.646;2022-08-07T02:25:38;101901.31;;;10.50;100.00
8160;BME280;27404;52.398;9.646;2022-08-07T02:28:05;101902.59;;;10.47;100.00
8160;BME280;27404;52.398;9.646;2022-08-07T02:30:33;101896.66;;;10.44;100.00
8160;BME280;27404;52.398;9.646;2022-08-07T02:33:00;101898.16;;;10.46;100.00
8160;BME280;27404;52.398;9.646;2022-08-07T02:35:27;101900.03;;;10.46;100.00
8160;BME280;27404;52.398;9.646;2022-08-07T02:37:55;101904.88;;;10.44;100.00
8160;BME280;27404;52.398;9.646;2022-08-07T02:40:22;101905.28;;;10.41;100.00
8160;BME280;27404;52.398;9.646;2022-08-07T02:42:48;101898.91;;;10.33;100.00
8160;BME280;27404;52.398;9.646;2022-08-07T02:45:16;101896.13;;;10.20;100.00
8160;BME280;27404;52.398;9.646;2022-08-07T02:47:43;101890.38;;;10.08;100.00
8160;BME280;27404;52.398;9.646;2022-08-07T02:50:09;101888.00;;;9.98;100.00
8160;BME280;27404;52.398;9.646;2022-08-07T02:52:42;101888.41;;;9.95;100.00
8160;BME280;27404;52.398;9.646;2022-08-07T02:55:13;101891.94;;;9.89;100.00
8160;BME280;27404;52.398;9.646;2022-08-07T02:57:41;101892.34;;;9.86;100.00
8160;BME280;27404;52.398;9.646;2022-08-07T03:00:09;101888.56;;;9.87;100.00
8160;BME280;27404;52.398;9.646;2022-08-07T03:02:35;101889.81;;;9.84;100.00
8160;BME280;27404;52.398;9.646;2022-08-07T03:05:02;101884.28;;;9.77;100.00
8160;BME280;27404;52.398;9.646;2022-08-07T03:07:29;101889.72;;;9.71;100.00
8160;BME280;27404;52.398;9.646;2022-08-07T03:09:55;101884.44;;;9.69;100.00
8160;BME280;27404;52.398;9.646;2022-08-07T03:12:21;101890.56;;;9.71;100.00
8160;BME280;27404;52.398;9.646;2022-08-07T03:14:47;101889.47;;;9.66;100.00
8160;BME280;27404;52.398;9.646;2022-08-07T03:17:14;101889.47;;;9.66;100.00
8160;BME280;27404;52.398;9.646;2022-08-07T03:19:40;101894.69;;;9.60;100.00
8160;BME280;27404;52.398;9.646;2022-08-07T03:22:06;101887.31;;;9.61;100.00
8160;BME280;27404;52.398;9.646;2022-08-07T03:24:33;101885.00;;;9.58;100.00
8160;BME280;27404;52.398;9.646;2022-08-07T03:27:00;101885.00;;;9.58;100.00
8160;BME280;27404;52.398;9.646;2022-08-07T03:29:50;101892.09;;;9.52;100.00
8160;BME280;27404;52.398;9.646;2022-08-07T03:32:20;101900.28;;;9.52;100.00
8160;BME280;27404;52.398;9.646;2022-08-07T03:34:47;101898.25;;;9.61;100.00
8160;BME280;27404;52.398;9.646;2022-08-07T03:37:17;101894.13;;;9.72;100.00
8160;BME280;27404;52.398;9.646;2022-08-07T03:39:43;101893.34;;;9.78;100.00
8160;BME280;27404;52.398;9.646;2022-08-07T03:42:11;101897.25;;;9.69;100.00
8160;BME280;27404;52.398;9.646;2022-08-07T03:44:37;101892.69;;;9.76;100.00
8160;BME280;27404;52.398;9.646;2022-08-07T03:47:04;101892.22;;;9.72;100.00
8160;BME280;27404;52.398;9.646;2022-08-07T03:49:31;101893.03;;;9.66;100.00
8160;BME280;27404;52.398;9.646;2022-08-07T03:51:57;101898.56;;;9.73;100.00
8160;BME280;27404;52.398;9.646;2022-08-07T03:54:23;101889.19;;;9.82;100.00
8160;BME280;27404;52.398;9.646;2022-08-07T03:56:49;101892.41;;;9.92;100.00
8160;BME280;27404;52.398;9.646;2022-08-07T03:59:15;101898.31;;;10.03;100.00
8160;BME280;27404;52.398;9.646;2022-08-07T04:01:43;101897.50;;;10.09;100.00
8160;BME280;27404;52.398;9.646;2022-08-07T04:04:09;101894.13;;;10.07;100.00
8160;BME280;27404;52.398;9.646;2022-08-07T04:06:36;101897.50;;;10.09;100.00
8160;BME280;27404;52.398;9.646;2022-08-07T04:09:02;101898.78;;;10.06;100.00
8160;BME280;27404;52.398;9.646;2022-08-07T04:11:29;101892.06;;;10.09;100.00
8160;BME280;27404;52.398;9.646;2022-08-07T04:13:55;101896.53;;;10.17;100.00
8160;BME280;27404;52.398;9.646;2022-08-07T04:16:21;101893.41;;;10.27;100.00
8160;BME280;27404;52.398;9.646;2022-08-07T04:18:47;101896.81;;;10.35;100.00
8160;BME280;27404;52.398;9.646;2022-08-07T04:21:13;101891.19;;;10.44;100.00
8160;BME280;27404;52.398;9.646;2022-08-07T04:23:39;101894.56;;;10.46;100.00
8160;BME280;27404;52.398;9.646;2022-08-07T04:26:06;101894.63;;;10.52;100.00
8160;BME280;27404;52.398;9.646;2022-08-07T04:28:31;101901.31;;;10.50;100.00
8160;BME280;27404;52.398;9.646;2022-08-07T04:30:57;101899.84;;;10.47;100.00
8160;BME280;27404;52.398;9.646;2022-08-07T04:33:23;101899.78;;;10.89;100.00
8160;BME280;27404;52.398;9.646;2022-08-07T04:35:49;101903.59;;;12.62;100.00
8160;BME280;27404;52.398;9.646;2022-08-07T04:38:15;101906.69;;;14.31;100.00
8160;BME280;27404;52.398;9.646;2022-08-07T04:40:42;101909.88;;;15.92;100.00
8160;BME280;27404;52.398;9.646;2022-08-07T04:43:08;101915.03;;;17.40;100.00
8160;BME280;27404;52.398;9.646;2022-08-07T04:46:25;101916.56;;;18.44;87.79
8160;BME280;27404;52.398;9.646;2022-08-07T04:53:58;101917.16;;;14.78;100.00
8160;BME280;27404;52.398;9.646;2022-08-07T04:56:37;101914.34;;;13.91;100.00
8160;BME280;27404;52.398;9.646;2022-08-07T04:59:37;101914.59;;;13.32;100.00
8160;BME280;27404;52.398;9.646;2022-08-07T05:02:08;101911.19;;;13.05;100.00
8160;BME280;27404;52.398;9.646;2022-08-07T05:04:52;101899.50;;;12.84;100.00
8160;BME280;27404;52.398;9.646;2022-08-07T05:07:35;101908.66;;;12.71;100.00
8160;BME280;27404;52.398;9.646;2022-08-07T05:10:07;101902.53;;;12.63;100.00
8160;BME280;27404;52.398;9.646;2022-08-07T05:12:39;101900.91;;;12.55;100.00
8160;BME280;27404;52.398;9.646;2022-08-07T05:15:09;101905.78;;;12.53;100.00
8160;BME280;27404;52.398;9.646;2022-08-07T05:17:46;101897.34;;;12.54;100.00
8160;BME280;27404;52.398;9.646;2022-08-07T05:20:16;101903.44;;;12.56;100.00
8160;BME280;27404;52.398;9.646;2022-08-07T05:22:43;101906.34;;;12.62;100.00
8160;BME280;27404;52.398;9.646;2022-08-07T05:25:10;101902.13;;;12.66;100.00
8160;BME280;27404;52.398;9.646;2022-08-07T05:27:39;101905.47;;;12.68;100.00
8160;BME280;27404;52.398;9.646;2022-08-07T05:30:06;101901.47;;;12.70;100.00
8160;BME280;27404;52.398;9.646;2022-08-07T05:32:32;101904.41;;;12.76;100.00
8160;BME280;27404;52.398;9.646;2022-08-07T05:34:58;101905.66;;;12.80;100.00
8160;BME280;27404;52.398;9.646;2022-08-07T05:37:25;101914.72;;;12.80;100.00
8160;BME280;27404;52.398;9.646;2022-08-07T05:39:51;101924.41;;;12.83;100.00
8160;BME280;27404;52.398;9.646;2022-08-07T05:42:17;101914.63;;;12.94;100.00
8160;BME280;27404;52.398;9.646;2022-08-07T05:44:42;101912.47;;;13.02;100.00
8160;BME280;27404;52.398;9.646;2022-08-07T05:47:08;101908.63;;;13.10;100.00
8160;BME280;27404;52.398;9.646;2022-08-07T05:49:35;101917.00;;;13.22;100.00
8160;BME280;27404;52.398;9.646;2022-08-07T05:52:02;101916.31;;;13.27;100.00
8160;BME280;27404;52.398;9.646;2022-08-07T05:54:28;101916.88;;;13.42;100.00
8160;BME280;27404;52.398;9.646;2022-08-07T05:56:55;101911.13;;;13.95;100.00
8160;BME280;27404;52.398;9.646;2022-08-07T05:59:21;101919.03;;;17.84;100.00
8160;BME280;27404;52.398;9.646;2022-08-07T06:01:48;101937.88;;;22.32;77.60
8160;BME280;27404;52.398;9.646;2022-08-07T06:04:16;101945.13;;;25.66;50.44
8160;BME280;27404;52.398;9.646;2022-08-07T06:06:43;101947.88;;;28.20;40.37
8160;BME280;27404;52.398;9.646;2022-08-07T06:09:09;101952.34;;;29.76;35.03
8160;BME280;27404;52.398;9.646;2022-08-07T06:11:36;101954.56;;;31.54;32.14
8160;BME280;27404;52.398;9.646;2022-08-07T06:14:03;101956.88;;;31.73;30.02
8160;BME280;27404;52.398;9.646;2022-08-07T06:16:32;101959.31;;;32.45;27.26
8160;BME280;27404;52.398;9.646;2022-08-07T06:18:59;101965.34;;;33.38;25.73
8160;BME280;27404;52.398;9.646;2022-08-07T06:21:26;101968.16;;;34.11;25.25
8160;BME280;27404;52.398;9.646;2022-08-07T06:23:52;101974.44;;;34.20;23.70
8160;BME280;27404;52.398;9.646;2022-08-07T06:26:17;101969.81;;;33.11;24.46
8160;BME280;27404;52.398;9.646;2022-08-07T06:28:55;101971.38;;;33.36;25.22
8160;BME280;27404;52.398;9.646;2022-08-07T06:31:25;101963.81;;;33.85;24.18
8160;BME280;27404;52.398;9.646;2022-08-07T06:33:50;101975.06;;;34.30;23.73
8160;BME280;27404;52.398;9.646;2022-08-07T06:36:16;101970.22;;;34.14;23.55
8160;BME280;27404;52.398;9.646;2022-08-07T06:38:43;101973.69;;;33.91;23.81
8160;BME280;27404;52.398;9.646;2022-08-07T06:41:11;101975.06;;;34.97;22.24
8160;BME280;27404;52.398;9.646;2022-08-07T06:43:41;101967.03;;;35.62;21.03
8160;BME280;27404;52.398;9.646;2022-08-07T06:46:07;101968.06;;;34.95;21.95
8160;BME280;27404;52.398;9.646;2022-08-07T06:48:33;101972.50;;;35.32;21.58
8160;BME280;27404;52.398;9.646;2022-08-07T06:51:03;101971.66;;;35.70;21.34
8160;BME280;27404;52.398;9.646;2022-08-07T06:53:30;101967.66;;;34.41;21.26
8160;BME280;27404;52.398;9.646;2022-08-07T06:55:58;101959.06;;;33.89;22.36
8160;BME280;27404;52.398;9.646;2022-08-07T06:58:24;101961.28;;;33.23;23.59
8160;BME280;27404;52.398;9.646;2022-08-07T07:00:51;101952.72;;;31.70;24.86
8160;BME280;27404;52.398;9.646;2022-08-07T07:03:17;101956.22;;;32.13;25.08
8160;BME280;27404;52.398;9.646;2022-08-07T07:05:44;101957.75;;;32.85;24.07
8160;BME280;27404;52.398;9.646;2022-08-07T07:08:09;101948.31;;;32.69;24.10
8160;BME280;27404;52.398;9.646;2022-08-07T07:10:37;101958.31;;;32.91;24.00
8160;BME280;27404;52.398;9.646;2022-08-07T07:13:13;101953.75;;;33.15;24.00
8160;BME280;27404;52.398;9.646;2022-08-07T07:15:45;101955.00;;;32.89;24.23
8160;BME280;27404;52.398;9.646;2022-08-07T07:18:21;101943.50;;;30.85;26.01
8160;BME280;27404;52.398;9.646;2022-08-07T07:20:54;101944.13;;;30.39;26.45
8160;BME280;27404;52.398;9.646;2022-08-07T07:23:22;101940.81;;;29.98;27.20
8160;BME280;27404;52.398;9.646;2022-08-07T07:25:50;101947.94;;;28.29;29.96
8160;BME280;27404;52.398;9.646;2022-08-07T07:28:26;101935.53;;;26.84;32.17
8160;BME280;27404;52.398;9.646;2022-08-07T07:31:00;101924.78;;;26.08;32.08
8160;BME280;27404;52.398;9.646;2022-08-07T07:33:27;101925.06;;;24.68;36.41
8160;BME280;27404;52.398;9.646;2022-08-07T07:35:56;101924.72;;;23.43;38.86
8160;BME280;27404;52.398;9.646;2022-08-07T07:38:23;101923.56;;;22.59;39.48
8160;BME280;27404;52.398;9.646;2022-08-07T07:40:55;101915.94;;;22.04;41.75
8160;BME280;27404;52.398;9.646;2022-08-07T07:43:23;101915.72;;;21.75;42.67
8160;BME280;27404;52.398;9.646;2022-08-07T07:45:50;101917.72;;;21.64;42.80
8160;BME280;27404;52.398;9.646;2022-08-07T07:48:19;101916.81;;;21.53;45.17
8160;BME280;27404;52.398;9.646;2022-08-07T07:50:47;101915.72;;;21.54;43.10
8160;BME280;27404;52.398;9.646;2022-08-07T07:53:15;101912.66;;;20.99;45.97
8160;BME280;27404;52.398;9.646;2022-08-07T07:55:42;101907.31;;;20.87;47.15
8160;BME280;27404;52.398;9.646;2022-08-07T07:58:08;101913.72;;;20.88;45.97
8160;BME280;27404;52.398;9.646;2022-08-07T08:00:34;101909.00;;;20.93;46.28
8160;BME280;27404;52.398;9.646;2022-08-07T08:03:04;101914.03;;;21.01;47.45
8160;BME280;27404;52.398;9.646;2022-08-07T08:05:31;101895.41;;;20.97;45.86
8160;BME280;27404;52.398;9.646;2022-08-07T08:07:56;101900.38;;;20.84;45.74
8160;BME280;27404;52.398;9.646;2022-08-07T08:10:22;101894.84;;;20.90;45.33
8160;BME280;27404;52.398;9.646;2022-08-07T08:12:49;101902.81;;;20.65;44.99
8160;BME280;27404;52.398;9.646;2022-08-07T08:15:15;101885.81;;;20.56;45.40
8160;BME280;27404;52.398;9.646;2022-08-07T08:17:42;101886.31;;;20.33;47.16
8160;BME280;27404;52.398;9.646;2022-08-07T08:20:09;101883.00;;;20.36;48.49
8160;BME280;27404;52.398;9.646;2022-08-07T08:22:38;101882.69;;;20.32;47.78
8160;BME280;27404;52.398;9.646;2022-08-07T08:28:20;101883.44;;;20.86;47.88
8160;BME280;27404;52.398;9.646;2022-08-07T08:30:49;101879.53;;;20.92;45.86
8160;BME280;27404;52.398;9.646;2022-08-07T08:33:19;101884.84;;;21.25;46.72
8160;BME280;27404;52.398;9.646;2022-08-07T08:35:48;101887.38;;;21.26;45.67
8160;BME280;27404;52.398;9.646;2022-08-07T08:38:17;101885.13;;;21.18;45.02
8160;BME280;27404;52.398;9.646;2022-08-07T08:40:52;101887.06;;;20.97;45.54
8160;BME280;27404;52.398;9.646;2022-08-07T08:43:39;101887.63;;;21.04;44.89
8160;BME280;27404;52.398;9.646;2022-08-07T08:46:17;101878.19;;;21.00;43.18
8160;BME280;27404;52.398;9.646;2022-08-07T08:54:25;101874.00;;;21.49;42.83
8160;BME280;27404;52.398;9.646;2022-08-07T08:56:53;101874.84;;;21.44;42.31
8160;BME280;27404;52.398;9.646;2022-08-07T08:59:30;101877.34;;;21.51;41.79
8160;BME280;27404;52.398;9.646;2022-08-07T09:07:47;101865.63;;;21.75;44.73
8160;BME280;27404;52.398;9.646;2022-08-07T09:10:22;101869.50;;;21.95;42.01
8160;BME280;27404;52.398;9.646;2022-08-07T09:13:08;101871.41;;;22.04;40.14
8160;BME280;27404;52.398;9.646;2022-08-07T09:15:53;101870.56;;;22.14;40.09
8160;BME280;27404;52.398;9.646;2022-08-07T09:24:02;101857.94;;;22.32;41.27
8160;BME280;27404;52.398;9.646;2022-08-07T09:26:43;101854.81;;;22.44;41.21
8160;BME280;27404;52.398;9.646;2022-08-07T09:29:53;101856.50;;;22.40;40.01
8160;BME280;27404;52.398;9.646;2022-08-07T09:35:06;101855.72;;;22.85;40.46
8160;BME280;27404;52.398;9.646;2022-08-07T09:40:25;101859.03;;;23.21;38.19
8160;BME280;27404;52.398;9.646;2022-08-07T09:45:48;101844.75;;;23.33;38.18
8160;BME280;27404;52.398;9.646;2022-08-07T09:48:40;101851.53;;;23.51;37.70
8160;BME280;27404;52.398;9.646;2022-08-07T09:51:30;101844.28;;;23.50;37.46
8160;BME280;27404;52.398;9.646;2022-08-07T09:53:59;101843.13;;;23.57;35.35
8160;BME280;27404;52.398;9.646;2022-08-07T09:59:32;101839.28;;;23.77;37.95
8160;BME280;27404;52.398;9.646;2022-08-07T10:05:02;101833.03;;;24.09;35.72
8160;BME280;27404;52.398;9.646;2022-08-07T10:10:29;101834.63;;;23.43;34.30
8160;BME280;27404;52.398;9.646;2022-08-07T10:13:20;101831.00;;;23.66;35.53
8160;BME280;27404;52.398;9.646;2022-08-07T10:16:04;101824.53;;;23.71;33.79
8160;BME280;27404;52.398;9.646;2022-08-07T10:24:28;101819.78;;;23.72;33.67
8160;BME280;27404;52.398;9.646;2022-08-07T10:27:05;101803.97;;;23.38;34.56
8160;BME280;27404;52.398;9.646;2022-08-07T10:33:10;101817.19;;;22.87;35.59
8160;BME280;27404;52.398;9.646;2022-08-07T10:43:43;101800.47;;;22.87;35.65
8160;BME280;27404;52.398;9.646;2022-08-07T10:46:17;101795.16;;;23.20;36.16
8160;BME280;27404;52.398;9.646;2022-08-07T10:49:09;101797.63;;;23.27;36.38
8160;BME280;27404;52.398;9.646;2022-08-07T10:54:45;101786.25;;;23.23;34.99
8160;BME280;27404;52.398;9.646;2022-08-07T10:57:32;101784.09;;;23.10;35.81
8160;BME280;27404;52.398;9.646;2022-08-07T11:00:13;101782.50;;;23.33;34.45
8160;BME280;27404;52.398;9.646;2022-08-07T11:03:02;101780.06;;;22.97;33.72
8160;BME280;27404;52.398;9.646;2022-08-07T11:05:35;101774.06;;;23.08;35.12
8160;BME280;27404;52.398;9.646;2022-08-07T11:13:46;101765.00;;;23.76;35.62
8160;BME280;27404;52.398;9.646;2022-08-07T11:16:27;101756.56;;;23.81;35.16
8160;BME280;27404;52.398;9.646;2022-08-07T11:24:29;101753.75;;;23.38;33.83
8160;BME280;27404;52.398;9.646;2022-08-07T11:27:20;101750.16;;;23.02;33.47
8160;BME280;27404;52.398;9.646;2022-08-07T11:29:57;101745.59;;;22.82;34.42
8160;BME280;27404;52.398;9.646;2022-08-07T11:32:42;101739.88;;;22.68;34.42
8160;BME280;27404;52.398;9.646;2022-08-07T11:35:14;101736.50;;;22.71;34.38
8160;BME280;27404;52.398;9.646;2022-08-07T11:43:30;101731.97;;;23.10;35.45
8160;BME280;27404;52.398;9.646;2022-08-07T11:52:07;101724.47;;;23.35;34.85
8160;BME280;27404;52.398;9.646;2022-08-07T11:54:51;101721.72;;;23.54;34.16
8160;BME280;27404;52.398;9.646;2022-08-07T11:57:36;101732.44;;;23.90;33.35
8160;BME280;27404;52.398;9.646;2022-08-07T12:00:24;101727.03;;;23.99;33.98
8160;BME280;27404;52.398;9.646;2022-08-07T12:03:20;101720.56;;;24.04;31.84
8160;BME280;27404;52.398;9.646;2022-08-07T12:06:51;101723.47;;;23.93;31.34
8160;BME280;27404;52.398;9.646;2022-08-07T12:09:28;101716.16;;;23.98;31.45
8160;BME280;27404;52.398;9.646;2022-08-07T12:14:28;101713.06;;;23.31;32.89
8160;BME280;27404;52.398;9.646;2022-08-07T12:17:02;101710.94;;;23.18;33.17
8160;BME280;27404;52.398;9.646;2022-08-07T12:22:11;101709.97;;;22.74;33.95
8160;BME280;27404;52.398;9.646;2022-08-07T12:25:31;101703.38;;;22.94;34.72
8160;BME280;27404;52.398;9.646;2022-08-07T12:28:14;101701.66;;;22.98;36.07
8160;BME280;27404;52.398;9.646;2022-08-07T12:30:43;101697.25;;;22.92;34.23
8160;BME280;27404;52.398;9.646;2022-08-07T12:33:13;101699.97;;;22.73;35.13
8160;BME280;27404;52.398;9.646;2022-08-07T12:35:44;101697.56;;;22.61;34.44
8160;BME280;27404;52.398;9.646;2022-08-07T12:38:12;101694.81;;;22.56;36.22
8160;BME280;27404;52.398;9.646;2022-08-07T12:40:39;101692.13;;;22.45;34.99
8160;BME280;27404;52.398;9.646;2022-08-07T12:43:07;101694.63;;;22.47;34.96
8160;BME280;27404;52.398;9.646;2022-08-07T12:45:46;101692.03;;;22.56;36.38
8160;BME280;27404;52.398;9.646;2022-08-07T12:51:24;101684.16;;;22.92;36.29
8160;BME280;27404;52.398;9.646;2022-08-07T12:54:00;101680.22;;;22.99;35.85
8160;BME280;27404;52.398;9.646;2022-08-07T12:56:38;101679.75;;;23.16;35.44
8160;BME280;27404;52.398;9.646;2022-08-07T12:59:07;101679.06;;;23.29;36.33
8160;BME280;27404;52.398;9.646;2022-08-07T13:16:01;101664.78;;;23.06;34.02
8160;BME280;27404;52.398;9.646;2022-08-07T13:18:51;101675.06;;;23.11;33.98
8160;BME280;27404;52.398;9.646;2022-08-07T13:21:28;101670.84;;;23.38;33.48
8160;BME280;27404;52.398;9.646;2022-08-07T13:24:19;101670.25;;;23.41;33.55
8160;BME280;27404;52.398;9.646;2022-08-07T13:27:04;101664.88;;;23.50;33.69
8160;BME280;27404;52.398;9.646;2022-08-07T13:29:46;101664.75;;;23.36;33.26
8160;BME280;27404;52.398;9.646;2022-08-07T13:32:24;101664.16;;;23.39;32.63
8160;BME280;27404;52.398;9.646;2022-08-07T13:34:59;101654.69;;;23.59;33.31
8160;BME280;27404;52.398;9.646;2022-08-07T13:40:28;101652.78;;;23.35;33.67
8160;BME280;27404;52.398;9.646;2022-08-07T13:43:00;101647.94;;;23.17;32.87
8160;BME280;27404;52.398;9.646;2022-08-07T13:45:29;101648.44;;;23.24;33.85
8160;BME280;27404;52.398;9.646;2022-08-07T13:47:58;101650.13;;;23.20;34.44
8160;BME280;27404;52.398;9.646;2022-08-07T13:50:25;101640.00;;;23.29;35.37
8160;BME280;27404;52.398;9.646;2022-08-07T13:52:52;101630.91;;;23.43;35.63
8160;BME280;27404;52.398;9.646;2022-08-07T13:55:20;101629.53;;;23.40;34.03
8160;BME280;27404;52.398;9.646;2022-08-07T13:58:05;101622.06;;;23.35;33.05
8160;BME280;27404;52.398;9.646;2022-08-07T14:00:52;101625.47;;;23.32;33.31
8160;BME280;27404;52.398;9.646;2022-08-07T14:03:23;101627.06;;;23.14;33.45
8160;BME280;27404;52.398;9.646;2022-08-07T14:05:51;101619.94;;;23.27;33.43
8160;BME280;27404;52.398;9.646;2022-08-07T14:08:20;101615.00;;;23.43;33.96
8160;BME280;27404;52.398;9.646;2022-08-07T14:10:48;101621.56;;;23.72;32.94
8160;BME280;27404;52.398;9.646;2022-08-07T14:13:19;101615.59;;;23.59;32.86
8160;BME280;27404;52.398;9.646;2022-08-07T14:15:52;101605.56;;;23.58;32.99
8160;BME280;27404;52.398;9.646;2022-08-07T14:18:23;101612.81;;;23.59;33.52
8160;BME280;27404;52.398;9.646;2022-08-07T14:20:58;101616.22;;;23.75;33.18
8160;BME280;27404;52.398;9.646;2022-08-07T14:23:27;101611.78;;;23.74;32.50
8160;BME280;27404;52.398;9.646;2022-08-07T14:26:08;101618.63;;;23.82;32.86
8160;BME280;27404;52.398;9.646;2022-08-07T14:28:35;101619.91;;;23.71;32.49
8160;BME280;27404;52.398;9.646;2022-08-07T14:31:02;101618.31;;;23.45;32.92
8160;BME280;27404;52.398;9.646;2022-08-07T14:33:31;101604.50;;;23.35;32.81
8160;BME280;27404;52.398;9.646;2022-08-07T14:35:58;101604.16;;;23.42;33.25
8160;BME280;27404;52.398;9.646;2022-08-07T14:38:28;101597.13;;;23.63;32.79
8160;BME280;27404;52.398;9.646;2022-08-07T14:40:56;101601.22;;;23.71;32.60
8160;BME280;27404;52.398;9.646;2022-08-07T14:43:24;101599.22;;;23.91;32.29
8160;BME280;27404;52.398;9.646;2022-08-07T14:45:54;101597.06;;;23.69;32.68
8160;BME280;27404;52.398;9.646;2022-08-07T14:48:24;101599.41;;;23.80;32.28
8160;BME280;27404;52.398;9.646;2022-08-07T14:50:53;101598.81;;;24.03;31.98
8160;BME280;27404;52.398;9.646;2022-08-07T14:53:22;101589.91;;;24.01;32.12
8160;BME280;27404;52.398;9.646;2022-08-07T14:55:48;101591.72;;;24.24;32.24
8160;BME280;27404;52.398;9.646;2022-08-07T14:58:16;101586.53;;;24.51;33.72
8160;BME280;27404;52.398;9.646;2022-08-07T15:00:49;101585.00;;;24.59;33.48
8160;BME280;27404;52.398;9.646;2022-08-07T15:03:16;101578.72;;;24.81;30.71
8160;BME280;27404;52.398;9.646;2022-08-07T15:05:47;101580.00;;;24.69;30.96
8160;BME280;27404;52.398;9.646;2022-08-07T15:08:22;101584.03;;;24.49;31.16